DAL2523 KLAX-KSEA
Flight info
| Callsign | DAL2523 |
|---|---|
| Flight time | 2h 16m |
| Altitude | 36000 |
| Route | LADYJ4 CSTRO SHIMR LKV HAWKZ8 |
| Aircraft | A21N/M-SDE2E3FGHIRWXY/LB1 |
Departure
| Time | 2026-04-24 02:20 |
|---|---|
| Airport | Los Angeles International Airport (KLAX) |
Arrival
| Time | 2026-04-24 04:37 |
|---|---|
| Airport | Seattle–Tacoma International Airport (KSEA) |
| Time | Latitude | Longitude | Altitude | Speed | Heading |
|---|---|---|---|---|---|
| 2026-04-24 01:53 | 33.94004 | -118.40123 | 126 ft | 0 kts | 308° |
| 2026-04-24 02:09 | 33.94002 | -118.40120 | 129 ft | 2 kts | 312° |
| 2026-04-24 02:09 | 33.93988 | -118.40113 | 125 ft | 2 kts | 7° |
| 2026-04-24 02:09 | 33.93972 | -118.40120 | 125 ft | 2 kts | 36° |
| 2026-04-24 02:09 | 33.93961 | -118.40133 | 125 ft | 2 kts | 54° |
| 2026-04-24 02:10 | 33.93957 | -118.40140 | 129 ft | 0 kts | 62° |
| 2026-04-24 02:14 | 33.93968 | -118.40076 | 127 ft | 6 kts | 134° |
| 2026-04-24 02:15 | 33.93901 | -118.40027 | 125 ft | 17 kts | 126° |
| 2026-04-24 02:15 | 33.93897 | -118.39821 | 124 ft | 29 kts | 83° |
| 2026-04-24 02:15 | 33.93922 | -118.39572 | 129 ft | 31 kts | 83° |
| 2026-04-24 02:15 | 33.93949 | -118.39302 | 127 ft | 33 kts | 83° |
| 2026-04-24 02:16 | 33.93979 | -118.39017 | 129 ft | 35 kts | 83° |
| 2026-04-24 02:16 | 33.94009 | -118.38720 | 126 ft | 36 kts | 83° |
| 2026-04-24 02:16 | 33.94040 | -118.38413 | 127 ft | 34 kts | 83° |
| 2026-04-24 02:16 | 33.94067 | -118.38152 | 129 ft | 26 kts | 83° |
| 2026-04-24 02:17 | 33.94077 | -118.38051 | 129 ft | 0 kts | 91° |
| 2026-04-24 02:18 | 33.94076 | -118.38047 | 129 ft | 4 kts | 95° |
| 2026-04-24 02:18 | 33.94031 | -118.37999 | 125 ft | 10 kts | 168° |
| 2026-04-24 02:18 | 33.93985 | -118.38047 | 127 ft | 0 kts | 257° |
| 2026-04-24 02:18 | 33.93982 | -118.38064 | 127 ft | 6 kts | 259° |
| 2026-04-24 02:19 | 33.93979 | -118.38089 | 129 ft | 0 kts | 262° |
| 2026-04-24 02:19 | 33.93964 | -118.38214 | 125 ft | 50 kts | 262° |
| 2026-04-24 02:19 | 33.93885 | -118.38996 | 126 ft | 137 kts | 263° |
| 2026-04-24 02:20 | 33.93745 | -118.40325 | 418 ft | 173 kts | 261° |
| 2026-04-24 02:20 | 33.93564 | -118.41841 | 1101 ft | 192 kts | 261° |
| 2026-04-24 02:20 | 33.93395 | -118.43448 | 2117 ft | 198 kts | 264° |
| 2026-04-24 02:20 | 33.93234 | -118.45179 | 2736 ft | 228 kts | 265° |
| 2026-04-24 02:21 | 33.93065 | -118.47205 | 3004 ft | 258 kts | 265° |
| 2026-04-24 02:21 | 33.92892 | -118.49454 | 3694 ft | 273 kts | 265° |
| 2026-04-24 02:21 | 33.92727 | -118.51701 | 4554 ft | 267 kts | 265° |
| 2026-04-24 02:21 | 33.92560 | -118.53936 | 5127 ft | 273 kts | 265° |
| 2026-04-24 02:22 | 33.92356 | -118.56251 | 5971 ft | 280 kts | 265° |
| 2026-04-24 02:22 | 33.92152 | -118.58576 | 6627 ft | 278 kts | 265° |
| 2026-04-24 02:22 | 33.92180 | -118.60890 | 6929 ft | 276 kts | 282° |
| 2026-04-24 02:22 | 33.92935 | -118.62983 | 7247 ft | 278 kts | 308° |
| 2026-04-24 02:23 | 33.94431 | -118.64507 | 7873 ft | 285 kts | 327° |
| 2026-04-24 02:23 | 33.96114 | -118.65689 | 7947 ft | 277 kts | 330° |
| 2026-04-24 02:23 | 33.97820 | -118.66778 | 8193 ft | 278 kts | 332° |
| 2026-04-24 02:23 | 33.99607 | -118.67680 | 8690 ft | 280 kts | 346° |
| 2026-04-24 02:24 | 34.01555 | -118.67775 | 8825 ft | 281 kts | 2° |
| 2026-04-24 02:24 | 34.03519 | -118.67599 | 8732 ft | 285 kts | 2° |
| 2026-04-24 02:24 | 34.05496 | -118.67419 | 8480 ft | 285 kts | 2° |
| 2026-04-24 02:24 | 34.07468 | -118.67220 | 8229 ft | 284 kts | 6° |
| 2026-04-24 02:25 | 34.09425 | -118.66817 | 8349 ft | 289 kts | 9° |
| 2026-04-24 02:25 | 34.11434 | -118.66341 | 9196 ft | 297 kts | 9° |
| 2026-04-24 02:25 | 34.13457 | -118.65851 | 10455 ft | 298 kts | 9° |
| 2026-04-24 02:25 | 34.15549 | -118.65354 | 11178 ft | 318 kts | 8° |
| 2026-04-24 02:26 | 34.17791 | -118.64825 | 11890 ft | 335 kts | 8° |
| 2026-04-24 02:26 | 34.20109 | -118.64276 | 12855 ft | 342 kts | 8° |
| 2026-04-24 02:26 | 34.22463 | -118.63728 | 13856 ft | 347 kts | 6° |
| 2026-04-24 02:26 | 34.24873 | -118.63517 | 14708 ft | 348 kts | 353° |
| 2026-04-24 02:27 | 34.27276 | -118.63872 | 15577 ft | 350 kts | 346° |
| 2026-04-24 02:27 | 34.29688 | -118.64409 | 16513 ft | 354 kts | 344° |
| 2026-04-24 02:27 | 34.32118 | -118.64978 | 17444 ft | 358 kts | 344° |
| 2026-04-24 02:27 | 34.34577 | -118.65553 | 18356 ft | 362 kts | 343° |
| 2026-04-24 02:28 | 34.37071 | -118.66132 | 19082 ft | 368 kts | 343° |
| 2026-04-24 02:28 | 34.39605 | -118.66718 | 19837 ft | 373 kts | 344° |
| 2026-04-24 02:28 | 34.42131 | -118.67294 | 20583 ft | 377 kts | 345° |
| 2026-04-24 02:28 | 34.44740 | -118.67833 | 21330 ft | 382 kts | 345° |
| 2026-04-24 02:29 | 34.47383 | -118.68350 | 22067 ft | 386 kts | 345° |
| 2026-04-24 02:29 | 34.50054 | -118.68867 | 22799 ft | 391 kts | 345° |
| 2026-04-24 02:29 | 34.52755 | -118.69391 | 23531 ft | 395 kts | 345° |
| 2026-04-24 02:29 | 34.55483 | -118.69921 | 24164 ft | 399 kts | 345° |
| 2026-04-24 02:30 | 34.58237 | -118.70456 | 24802 ft | 402 kts | 345° |
| 2026-04-24 02:30 | 34.61013 | -118.70997 | 25418 ft | 406 kts | 345° |
| 2026-04-24 02:30 | 34.63811 | -118.71545 | 26004 ft | 409 kts | 345° |
| 2026-04-24 02:30 | 34.66632 | -118.72098 | 26548 ft | 412 kts | 345° |
| 2026-04-24 02:31 | 34.69467 | -118.72688 | 27061 ft | 414 kts | 342° |
| 2026-04-24 02:31 | 34.72223 | -118.73637 | 27561 ft | 410 kts | 334° |
| 2026-04-24 02:31 | 34.74802 | -118.75088 | 28069 ft | 408 kts | 327° |
| 2026-04-24 02:31 | 34.77294 | -118.76753 | 28564 ft | 410 kts | 325° |
| 2026-04-24 02:32 | 34.79783 | -118.78468 | 29039 ft | 413 kts | 325° |
| 2026-04-24 02:32 | 34.82284 | -118.80198 | 29542 ft | 415 kts | 325° |
| 2026-04-24 02:32 | 34.84807 | -118.81939 | 30007 ft | 418 kts | 325° |
| 2026-04-24 02:32 | 34.87354 | -118.83695 | 30397 ft | 421 kts | 325° |
| 2026-04-24 02:33 | 34.89914 | -118.85460 | 30781 ft | 424 kts | 325° |
| 2026-04-24 02:33 | 34.92483 | -118.87231 | 31240 ft | 424 kts | 325° |
| 2026-04-24 02:33 | 34.95048 | -118.88995 | 31804 ft | 422 kts | 324° |
| 2026-04-24 02:33 | 34.97593 | -118.90748 | 32319 ft | 420 kts | 324° |
| 2026-04-24 02:34 | 35.00140 | -118.92504 | 32805 ft | 420 kts | 324° |
| 2026-04-24 02:34 | 35.02681 | -118.94258 | 33241 ft | 420 kts | 324° |
| 2026-04-24 02:34 | 35.05220 | -118.96012 | 33679 ft | 419 kts | 324° |
| 2026-04-24 02:34 | 35.07753 | -118.97762 | 34112 ft | 418 kts | 324° |
| 2026-04-24 02:35 | 35.10283 | -118.99512 | 34503 ft | 417 kts | 324° |
| 2026-04-24 02:35 | 35.12801 | -119.01255 | 34915 ft | 415 kts | 323° |
| 2026-04-24 02:35 | 35.15307 | -119.02991 | 35281 ft | 414 kts | 323° |
| 2026-04-24 02:35 | 35.17808 | -119.04725 | 35643 ft | 413 kts | 323° |
| 2026-04-24 02:36 | 35.20308 | -119.06461 | 35972 ft | 414 kts | 323° |
| 2026-04-24 02:36 | 35.22817 | -119.08204 | 36018 ft | 414 kts | 323° |
| 2026-04-24 02:36 | 35.27826 | -119.11686 | 36019 ft | 414 kts | 323° |
| 2026-04-24 02:37 | 35.32832 | -119.15170 | 36003 ft | 414 kts | 323° |
| 2026-04-24 02:37 | 35.37837 | -119.18660 | 36021 ft | 414 kts | 323° |
| 2026-04-24 02:38 | 35.40130 | -119.20260 | 36008 ft | 414 kts | 323° |
| 2026-04-24 02:38 | 35.44552 | -119.23137 | 36008 ft | 420 kts | 330° |
| 2026-04-24 02:39 | 35.50208 | -119.25262 | 36012 ft | 428 kts | 338° |
| 2026-04-24 02:39 | 35.56013 | -119.26978 | 36015 ft | 430 kts | 339° |
| 2026-04-24 02:40 | 35.61835 | -119.28644 | 36017 ft | 429 kts | 339° |
| 2026-04-24 02:40 | 35.67645 | -119.30349 | 36018 ft | 429 kts | 339° |
| 2026-04-24 02:41 | 35.73448 | -119.32084 | 36017 ft | 429 kts | 339° |
| 2026-04-24 02:41 | 35.79243 | -119.33828 | 36037 ft | 429 kts | 339° |
| 2026-04-24 02:42 | 35.85037 | -119.35573 | 36022 ft | 428 kts | 339° |
| 2026-04-24 02:42 | 35.90827 | -119.37318 | 36021 ft | 428 kts | 339° |
| 2026-04-24 02:43 | 35.96618 | -119.39074 | 36021 ft | 428 kts | 338° |
| 2026-04-24 02:43 | 36.02392 | -119.40875 | 36028 ft | 428 kts | 339° |
| 2026-04-24 02:44 | 36.07208 | -119.42307 | 36028 ft | 429 kts | 339° |
| 2026-04-24 02:44 | 36.13015 | -119.44052 | 35340 ft | 421 kts | 338° |
| 2026-04-24 02:45 | 36.16777 | -119.45199 | 35912 ft | 419 kts | 339° |
| 2026-04-24 02:45 | 36.18657 | -119.45766 | 36012 ft | 422 kts | 339° |
| 2026-04-24 02:45 | 36.24425 | -119.47510 | 36026 ft | 428 kts | 339° |
| 2026-04-24 02:46 | 36.30204 | -119.49258 | 36027 ft | 427 kts | 339° |
| 2026-04-24 02:46 | 36.35981 | -119.51014 | 36027 ft | 427 kts | 339° |
| 2026-04-24 02:47 | 36.41745 | -119.52773 | 36029 ft | 426 kts | 339° |
| 2026-04-24 02:47 | 36.47499 | -119.54532 | 36032 ft | 426 kts | 339° |
| 2026-04-24 02:48 | 36.53254 | -119.56296 | 36030 ft | 426 kts | 339° |
| 2026-04-24 02:48 | 36.59001 | -119.58060 | 36041 ft | 426 kts | 339° |
| 2026-04-24 02:49 | 36.64749 | -119.59825 | 36027 ft | 425 kts | 339° |
| 2026-04-24 02:49 | 36.70459 | -119.61581 | 36027 ft | 425 kts | 339° |
| 2026-04-24 02:50 | 36.76194 | -119.63348 | 36027 ft | 424 kts | 339° |
| 2026-04-24 02:50 | 36.81929 | -119.65118 | 36027 ft | 424 kts | 339° |
| 2026-04-24 02:51 | 36.87664 | -119.66891 | 36027 ft | 424 kts | 339° |
| 2026-04-24 02:51 | 36.93392 | -119.68671 | 36027 ft | 424 kts | 339° |
| 2026-04-24 02:52 | 36.99120 | -119.70445 | 36035 ft | 424 kts | 339° |
| 2026-04-24 02:52 | 37.04848 | -119.72221 | 36026 ft | 424 kts | 339° |
| 2026-04-24 02:53 | 37.10568 | -119.73998 | 36029 ft | 423 kts | 339° |
| 2026-04-24 02:53 | 37.16285 | -119.75780 | 36038 ft | 423 kts | 339° |
| 2026-04-24 02:54 | 37.21995 | -119.77562 | 36040 ft | 423 kts | 339° |
| 2026-04-24 02:54 | 37.27704 | -119.79346 | 36034 ft | 423 kts | 339° |
| 2026-04-24 02:55 | 37.33410 | -119.81132 | 36045 ft | 423 kts | 339° |
| 2026-04-24 02:55 | 37.39114 | -119.82919 | 36043 ft | 422 kts | 339° |
| 2026-04-24 02:56 | 37.44817 | -119.84709 | 36053 ft | 422 kts | 339° |
| 2026-04-24 02:56 | 37.50515 | -119.86501 | 36059 ft | 422 kts | 339° |
| 2026-04-24 02:57 | 37.56213 | -119.88296 | 36081 ft | 422 kts | 339° |
| 2026-04-24 02:57 | 37.61905 | -119.90090 | 36069 ft | 422 kts | 339° |
| 2026-04-24 02:58 | 37.67595 | -119.91888 | 36069 ft | 421 kts | 339° |
| 2026-04-24 02:58 | 37.73282 | -119.93687 | 36070 ft | 421 kts | 339° |
| 2026-04-24 02:59 | 37.78963 | -119.95488 | 36074 ft | 421 kts | 339° |
| 2026-04-24 02:59 | 37.84638 | -119.97290 | 36082 ft | 420 kts | 339° |
| 2026-04-24 03:00 | 37.90315 | -119.99095 | 36087 ft | 420 kts | 339° |
| 2026-04-24 03:00 | 37.95979 | -120.00901 | 36088 ft | 420 kts | 339° |
| 2026-04-24 03:01 | 38.01641 | -120.02705 | 36083 ft | 419 kts | 339° |
| 2026-04-24 03:01 | 38.07262 | -120.04499 | 36093 ft | 419 kts | 339° |
| 2026-04-24 03:02 | 38.12914 | -120.06308 | 36111 ft | 419 kts | 339° |
| 2026-04-24 03:02 | 38.18551 | -120.08114 | 36085 ft | 417 kts | 339° |
| 2026-04-24 03:03 | 38.24258 | -120.09610 | 36084 ft | 423 kts | 347° |
| 2026-04-24 03:03 | 38.30143 | -120.10249 | 36088 ft | 425 kts | 349° |
| 2026-04-24 03:04 | 38.36037 | -120.10797 | 36088 ft | 425 kts | 349° |
| 2026-04-24 03:04 | 38.41925 | -120.11335 | 36085 ft | 424 kts | 349° |
| 2026-04-24 03:05 | 38.47815 | -120.11874 | 36092 ft | 425 kts | 349° |
| 2026-04-24 03:05 | 38.53713 | -120.12412 | 36101 ft | 424 kts | 349° |
| 2026-04-24 03:06 | 38.59605 | -120.12951 | 36101 ft | 424 kts | 349° |
| 2026-04-24 03:06 | 38.65491 | -120.13489 | 36097 ft | 424 kts | 349° |
| 2026-04-24 03:07 | 38.71369 | -120.14028 | 36095 ft | 424 kts | 349° |
| 2026-04-24 03:07 | 38.77250 | -120.14568 | 36094 ft | 424 kts | 349° |
| 2026-04-24 03:08 | 38.86034 | -120.15377 | 36097 ft | 424 kts | 349° |
| 2026-04-24 03:09 | 38.91953 | -120.15923 | 36094 ft | 423 kts | 349° |
| 2026-04-24 03:09 | 38.97799 | -120.16463 | 36093 ft | 424 kts | 349° |
| 2026-04-24 03:10 | 39.03678 | -120.17006 | 36087 ft | 423 kts | 349° |
| 2026-04-24 03:10 | 39.09554 | -120.17551 | 36098 ft | 424 kts | 349° |
| 2026-04-24 03:11 | 39.15436 | -120.18097 | 36101 ft | 424 kts | 349° |
| 2026-04-24 03:11 | 39.21322 | -120.18645 | 36109 ft | 424 kts | 349° |
| 2026-04-24 03:12 | 39.27201 | -120.19193 | 36106 ft | 424 kts | 349° |
| 2026-04-24 03:12 | 39.33084 | -120.19741 | 36108 ft | 424 kts | 349° |
| 2026-04-24 03:13 | 39.38969 | -120.20292 | 36044 ft | 424 kts | 349° |
| 2026-04-24 03:13 | 39.44847 | -120.20842 | 36041 ft | 424 kts | 349° |
| 2026-04-24 03:14 | 39.50730 | -120.21394 | 36044 ft | 423 kts | 349° |
| 2026-04-24 03:14 | 39.56606 | -120.21946 | 36038 ft | 423 kts | 349° |
| 2026-04-24 03:15 | 39.62448 | -120.22491 | 36037 ft | 424 kts | 349° |
| 2026-04-24 03:15 | 39.68323 | -120.23047 | 36044 ft | 423 kts | 349° |
| 2026-04-24 03:16 | 39.74195 | -120.23603 | 36030 ft | 423 kts | 349° |
| 2026-04-24 03:16 | 39.80060 | -120.24158 | 36028 ft | 423 kts | 349° |
| 2026-04-24 03:17 | 39.85927 | -120.24715 | 36025 ft | 423 kts | 349° |
| 2026-04-24 03:17 | 39.91791 | -120.25271 | 36025 ft | 422 kts | 349° |
| 2026-04-24 03:18 | 39.97642 | -120.25827 | 36024 ft | 421 kts | 349° |
| 2026-04-24 03:18 | 40.03490 | -120.26385 | 36019 ft | 421 kts | 349° |
| 2026-04-24 03:19 | 40.09332 | -120.26941 | 36021 ft | 420 kts | 349° |
| 2026-04-24 03:19 | 40.15166 | -120.27499 | 36026 ft | 420 kts | 349° |
| 2026-04-24 03:20 | 40.20990 | -120.28057 | 36031 ft | 420 kts | 349° |
| 2026-04-24 03:20 | 40.26814 | -120.28615 | 36041 ft | 419 kts | 349° |
| 2026-04-24 03:21 | 40.32633 | -120.29174 | 36040 ft | 419 kts | 349° |
| 2026-04-24 03:21 | 40.38446 | -120.29734 | 36043 ft | 419 kts | 349° |
| 2026-04-24 03:22 | 40.44263 | -120.30295 | 36056 ft | 419 kts | 349° |
| 2026-04-24 03:22 | 40.50071 | -120.30855 | 36042 ft | 418 kts | 349° |
| 2026-04-24 03:23 | 40.55872 | -120.31416 | 36038 ft | 418 kts | 349° |
| 2026-04-24 03:23 | 40.61670 | -120.31978 | 36037 ft | 418 kts | 349° |
| 2026-04-24 03:24 | 40.67468 | -120.32541 | 36036 ft | 418 kts | 349° |
| 2026-04-24 03:24 | 40.73269 | -120.33105 | 36035 ft | 418 kts | 349° |
| 2026-04-24 03:25 | 40.79069 | -120.33671 | 36040 ft | 418 kts | 349° |
| 2026-04-24 03:25 | 40.84870 | -120.34237 | 36037 ft | 418 kts | 350° |
| 2026-04-24 03:26 | 40.90678 | -120.34804 | 36042 ft | 418 kts | 350° |
| 2026-04-24 03:26 | 40.96485 | -120.35373 | 36047 ft | 418 kts | 350° |
| 2026-04-24 03:27 | 41.02291 | -120.35943 | 36054 ft | 419 kts | 350° |
| 2026-04-24 03:27 | 41.08112 | -120.36516 | 36068 ft | 419 kts | 351° |
| 2026-04-24 03:28 | 41.13908 | -120.37087 | 36055 ft | 421 kts | 351° |
| 2026-04-24 03:28 | 41.19755 | -120.37664 | 36066 ft | 422 kts | 352° |
| 2026-04-24 03:29 | 41.25614 | -120.38242 | 36070 ft | 423 kts | 352° |
| 2026-04-24 03:29 | 41.30526 | -120.38727 | 36074 ft | 423 kts | 352° |
| 2026-04-24 03:30 | 41.37342 | -120.39403 | 36077 ft | 423 kts | 352° |
| 2026-04-24 03:30 | 41.42263 | -120.39891 | 36080 ft | 423 kts | 352° |
| 2026-04-24 03:31 | 41.48099 | -120.40473 | 36082 ft | 424 kts | 353° |
| 2026-04-24 03:31 | 41.54019 | -120.41063 | 36067 ft | 424 kts | 353° |
| 2026-04-24 03:32 | 41.59899 | -120.41651 | 36076 ft | 424 kts | 353° |
| 2026-04-24 03:32 | 41.65742 | -120.42235 | 36077 ft | 424 kts | 353° |
| 2026-04-24 03:33 | 41.71621 | -120.42826 | 36082 ft | 423 kts | 354° |
| 2026-04-24 03:33 | 41.77503 | -120.43419 | 36089 ft | 424 kts | 353° |
| 2026-04-24 03:34 | 41.83379 | -120.44007 | 36088 ft | 423 kts | 353° |
| 2026-04-24 03:34 | 41.89251 | -120.44598 | 36090 ft | 423 kts | 353° |
| 2026-04-24 03:35 | 41.95119 | -120.45190 | 36088 ft | 423 kts | 353° |
| 2026-04-24 03:35 | 42.00991 | -120.45784 | 36086 ft | 423 kts | 353° |
| 2026-04-24 03:36 | 42.06865 | -120.46379 | 36084 ft | 423 kts | 353° |
| 2026-04-24 03:36 | 42.12739 | -120.46975 | 36082 ft | 423 kts | 353° |
| 2026-04-24 03:37 | 42.18621 | -120.47574 | 36076 ft | 424 kts | 353° |
| 2026-04-24 03:37 | 42.24501 | -120.48172 | 36098 ft | 424 kts | 353° |
| 2026-04-24 03:38 | 42.30387 | -120.48773 | 36106 ft | 424 kts | 353° |
| 2026-04-24 03:38 | 42.36268 | -120.49375 | 36097 ft | 424 kts | 354° |
| 2026-04-24 03:39 | 42.42146 | -120.49978 | 36103 ft | 424 kts | 354° |
| 2026-04-24 03:39 | 42.48014 | -120.50730 | 36090 ft | 422 kts | 347° |
| 2026-04-24 03:40 | 42.53543 | -120.53247 | 36097 ft | 420 kts | 335° |
| 2026-04-24 03:40 | 42.58878 | -120.56473 | 36099 ft | 420 kts | 335° |
| 2026-04-24 03:41 | 42.64194 | -120.59708 | 36091 ft | 418 kts | 335° |
| 2026-04-24 03:41 | 42.69499 | -120.62931 | 36089 ft | 417 kts | 335° |
| 2026-04-24 03:42 | 42.74782 | -120.66143 | 36087 ft | 415 kts | 335° |
| 2026-04-24 03:42 | 42.80053 | -120.69353 | 36087 ft | 415 kts | 335° |
| 2026-04-24 03:43 | 42.85324 | -120.72569 | 36079 ft | 415 kts | 335° |
| 2026-04-24 03:43 | 42.90549 | -120.75752 | 36081 ft | 414 kts | 335° |
| 2026-04-24 03:44 | 42.95803 | -120.78974 | 36079 ft | 414 kts | 335° |
| 2026-04-24 03:44 | 43.01057 | -120.82214 | 36086 ft | 414 kts | 335° |
| 2026-04-24 03:45 | 43.06306 | -120.85438 | 36082 ft | 413 kts | 335° |
| 2026-04-24 03:45 | 43.11550 | -120.88661 | 36083 ft | 413 kts | 335° |
| 2026-04-24 03:46 | 43.16794 | -120.91894 | 36079 ft | 413 kts | 335° |
| 2026-04-24 03:46 | 43.22028 | -120.95129 | 36084 ft | 412 kts | 335° |
| 2026-04-24 03:47 | 43.27251 | -120.98363 | 36081 ft | 412 kts | 335° |
| 2026-04-24 03:47 | 43.32465 | -121.01597 | 36085 ft | 410 kts | 335° |
| 2026-04-24 03:48 | 43.37652 | -121.04822 | 36088 ft | 409 kts | 335° |
| 2026-04-24 03:48 | 43.42786 | -121.08021 | 36088 ft | 407 kts | 335° |
| 2026-04-24 03:49 | 43.47939 | -121.11236 | 36093 ft | 406 kts | 335° |
| 2026-04-24 03:49 | 43.53086 | -121.14454 | 36096 ft | 406 kts | 335° |
| 2026-04-24 03:50 | 43.58235 | -121.17679 | 36093 ft | 406 kts | 335° |
| 2026-04-24 03:50 | 43.63376 | -121.20905 | 36097 ft | 406 kts | 335° |
| 2026-04-24 03:51 | 43.68508 | -121.24132 | 36100 ft | 406 kts | 335° |
| 2026-04-24 03:51 | 43.73650 | -121.27371 | 36097 ft | 405 kts | 335° |
| 2026-04-24 03:52 | 43.78784 | -121.30611 | 36088 ft | 405 kts | 335° |
| 2026-04-24 03:52 | 43.83914 | -121.33855 | 36090 ft | 405 kts | 335° |
| 2026-04-24 03:53 | 43.89044 | -121.37105 | 36086 ft | 405 kts | 335° |
| 2026-04-24 03:53 | 43.94138 | -121.40338 | 36080 ft | 405 kts | 335° |
| 2026-04-24 03:54 | 43.99264 | -121.43598 | 36078 ft | 405 kts | 335° |
| 2026-04-24 03:54 | 44.04388 | -121.46861 | 36082 ft | 404 kts | 334° |
| 2026-04-24 03:55 | 44.09494 | -121.50121 | 36088 ft | 403 kts | 334° |
| 2026-04-24 03:55 | 44.14583 | -121.53377 | 36095 ft | 402 kts | 334° |
| 2026-04-24 03:56 | 44.19668 | -121.56635 | 36104 ft | 402 kts | 334° |
| 2026-04-24 03:56 | 44.24744 | -121.59894 | 36122 ft | 402 kts | 334° |
| 2026-04-24 03:57 | 44.29820 | -121.63160 | 36125 ft | 402 kts | 334° |
| 2026-04-24 03:57 | 44.34899 | -121.66433 | 36138 ft | 402 kts | 334° |
| 2026-04-24 03:58 | 44.39973 | -121.69709 | 36141 ft | 402 kts | 334° |
| 2026-04-24 03:58 | 44.45047 | -121.72992 | 36139 ft | 402 kts | 334° |
| 2026-04-24 03:59 | 44.50116 | -121.76278 | 36143 ft | 401 kts | 334° |
| 2026-04-24 03:59 | 44.55152 | -121.79548 | 36155 ft | 401 kts | 334° |
| 2026-04-24 04:00 | 44.60218 | -121.82845 | 36155 ft | 401 kts | 334° |
| 2026-04-24 04:00 | 44.65280 | -121.86145 | 36170 ft | 401 kts | 334° |
| 2026-04-24 04:01 | 44.70330 | -121.89444 | 36181 ft | 400 kts | 334° |
| 2026-04-24 04:01 | 44.75373 | -121.92744 | 36180 ft | 400 kts | 334° |
| 2026-04-24 04:02 | 44.80413 | -121.96049 | 36176 ft | 398 kts | 334° |
| 2026-04-24 04:02 | 44.85422 | -121.99341 | 36186 ft | 397 kts | 334° |
| 2026-04-24 04:03 | 44.90422 | -122.02632 | 36190 ft | 396 kts | 334° |
| 2026-04-24 04:03 | 44.95420 | -122.05928 | 36193 ft | 396 kts | 334° |
| 2026-04-24 04:04 | 45.00415 | -122.09229 | 36192 ft | 396 kts | 334° |
| 2026-04-24 04:04 | 45.05401 | -122.12531 | 36194 ft | 395 kts | 334° |
| 2026-04-24 04:05 | 45.10366 | -122.15823 | 35921 ft | 393 kts | 334° |
| 2026-04-24 04:05 | 45.15335 | -122.19126 | 36146 ft | 396 kts | 334° |
| 2026-04-24 04:06 | 45.20300 | -122.22434 | 36191 ft | 394 kts | 334° |
| 2026-04-24 04:06 | 45.25251 | -122.25738 | 36194 ft | 393 kts | 334° |
| 2026-04-24 04:07 | 45.30189 | -122.29039 | 36192 ft | 392 kts | 334° |
| 2026-04-24 04:07 | 45.35094 | -122.32325 | 36191 ft | 392 kts | 334° |
| 2026-04-24 04:08 | 45.40029 | -122.35638 | 36194 ft | 392 kts | 334° |
| 2026-04-24 04:08 | 45.44947 | -122.38945 | 36192 ft | 390 kts | 334° |
| 2026-04-24 04:09 | 45.49853 | -122.42250 | 36193 ft | 390 kts | 334° |
| 2026-04-24 04:09 | 45.54781 | -122.45577 | 36193 ft | 390 kts | 334° |
| 2026-04-24 04:10 | 45.59663 | -122.48880 | 36193 ft | 389 kts | 335° |
| 2026-04-24 04:10 | 45.62086 | -122.50521 | 36084 ft | 388 kts | 335° |
| 2026-04-24 04:10 | 45.64509 | -122.52164 | 35884 ft | 380 kts | 335° |
| 2026-04-24 04:11 | 45.69155 | -122.55320 | 35183 ft | 365 kts | 335° |
| 2026-04-24 04:11 | 45.71444 | -122.56877 | 34569 ft | 364 kts | 335° |
| 2026-04-24 04:11 | 45.73751 | -122.58382 | 33966 ft | 361 kts | 339° |
| 2026-04-24 04:11 | 45.76118 | -122.59418 | 33377 ft | 354 kts | 347° |
| 2026-04-24 04:12 | 45.78560 | -122.60106 | 32798 ft | 360 kts | 349° |
| 2026-04-24 04:12 | 45.81047 | -122.60725 | 32031 ft | 363 kts | 349° |
| 2026-04-24 04:12 | 45.83558 | -122.61337 | 30889 ft | 374 kts | 349° |
| 2026-04-24 04:12 | 45.86144 | -122.61969 | 29340 ft | 380 kts | 349° |
| 2026-04-24 04:13 | 45.88777 | -122.62616 | 27372 ft | 387 kts | 349° |
| 2026-04-24 04:13 | 45.91460 | -122.63279 | 25393 ft | 395 kts | 349° |
| 2026-04-24 04:13 | 45.94188 | -122.63954 | 23768 ft | 398 kts | 349° |
| 2026-04-24 04:13 | 45.96865 | -122.64617 | 22751 ft | 381 kts | 349° |
| 2026-04-24 04:14 | 45.99421 | -122.65251 | 22319 ft | 367 kts | 350° |
| 2026-04-24 04:14 | 46.01077 | -122.65662 | 22197 ft | 363 kts | 350° |
| 2026-04-24 04:14 | 46.03562 | -122.66281 | 22201 ft | 362 kts | 350° |
| 2026-04-24 04:14 | 46.06044 | -122.66899 | 22204 ft | 362 kts | 350° |
| 2026-04-24 04:15 | 46.08525 | -122.67517 | 22213 ft | 361 kts | 350° |
| 2026-04-24 04:15 | 46.10998 | -122.68060 | 22090 ft | 358 kts | 351° |
| 2026-04-24 04:15 | 46.13460 | -122.68551 | 21834 ft | 356 kts | 351° |
| 2026-04-24 04:15 | 46.16709 | -122.69189 | 21492 ft | 355 kts | 351° |
| 2026-04-24 04:16 | 46.18365 | -122.69514 | 21319 ft | 354 kts | 351° |
| 2026-04-24 04:16 | 46.20773 | -122.69989 | 21064 ft | 353 kts | 351° |
| 2026-04-24 04:16 | 46.23236 | -122.70476 | 20812 ft | 352 kts | 351° |
| 2026-04-24 04:16 | 46.25661 | -122.70956 | 20561 ft | 351 kts | 351° |
| 2026-04-24 04:17 | 46.28039 | -122.71427 | 20166 ft | 348 kts | 351° |
| 2026-04-24 04:17 | 46.30418 | -122.71899 | 19109 ft | 341 kts | 351° |
| 2026-04-24 04:17 | 46.32797 | -122.72227 | 17456 ft | 347 kts | 355° |
| 2026-04-24 04:17 | 46.35236 | -122.72362 | 15624 ft | 353 kts | 357° |
| 2026-04-24 04:18 | 46.37706 | -122.72448 | 13953 ft | 356 kts | 357° |
| 2026-04-24 04:18 | 46.40135 | -122.72526 | 12874 ft | 338 kts | 357° |
| 2026-04-24 04:18 | 46.42405 | -122.72600 | 12372 ft | 315 kts | 357° |
| 2026-04-24 04:18 | 46.44577 | -122.72674 | 12195 ft | 311 kts | 357° |
| 2026-04-24 04:19 | 46.46745 | -122.72749 | 12204 ft | 312 kts | 357° |
| 2026-04-24 04:19 | 46.48910 | -122.72826 | 12220 ft | 310 kts | 357° |
| 2026-04-24 04:19 | 46.51057 | -122.72902 | 12203 ft | 307 kts | 357° |
| 2026-04-24 04:19 | 46.53190 | -122.72979 | 12203 ft | 306 kts | 357° |
| 2026-04-24 04:20 | 46.55320 | -122.73057 | 12205 ft | 306 kts | 357° |
| 2026-04-24 04:20 | 46.57447 | -122.73134 | 12197 ft | 306 kts | 357° |
| 2026-04-24 04:20 | 46.59576 | -122.73212 | 12147 ft | 306 kts | 357° |
| 2026-04-24 04:20 | 46.61706 | -122.73289 | 12037 ft | 305 kts | 357° |
| 2026-04-24 04:21 | 46.63801 | -122.73365 | 12036 ft | 305 kts | 357° |
| 2026-04-24 04:21 | 46.65922 | -122.73442 | 12036 ft | 305 kts | 357° |
| 2026-04-24 04:21 | 46.68044 | -122.73518 | 12036 ft | 304 kts | 357° |
| 2026-04-24 04:21 | 46.70129 | -122.73593 | 12041 ft | 296 kts | 357° |
| 2026-04-24 04:22 | 46.72180 | -122.73666 | 12029 ft | 294 kts | 357° |
| 2026-04-24 04:22 | 46.74227 | -122.73741 | 12031 ft | 294 kts | 357° |
| 2026-04-24 04:22 | 46.76274 | -122.73784 | 12029 ft | 294 kts | 0° |
| 2026-04-24 04:22 | 46.78293 | -122.73320 | 11828 ft | 296 kts | 15° |
| 2026-04-24 04:23 | 46.80135 | -122.71944 | 11576 ft | 301 kts | 31° |
| 2026-04-24 04:23 | 46.81802 | -122.70082 | 11338 ft | 302 kts | 35° |
| 2026-04-24 04:23 | 46.83425 | -122.68133 | 11100 ft | 301 kts | 35° |
| 2026-04-24 04:23 | 46.84982 | -122.66125 | 10847 ft | 297 kts | 38° |
| 2026-04-24 04:24 | 46.86489 | -122.64057 | 10604 ft | 295 kts | 39° |
| 2026-04-24 04:24 | 46.87977 | -122.61995 | 10468 ft | 294 kts | 39° |
| 2026-04-24 04:24 | 46.89459 | -122.59943 | 10289 ft | 293 kts | 39° |
| 2026-04-24 04:24 | 46.90924 | -122.57874 | 10043 ft | 292 kts | 40° |
| 2026-04-24 04:25 | 46.92346 | -122.55763 | 9780 ft | 290 kts | 41° |
| 2026-04-24 04:25 | 46.93696 | -122.53723 | 9628 ft | 266 kts | 41° |
| 2026-04-24 04:25 | 46.94917 | -122.51867 | 9435 ft | 245 kts | 41° |
| 2026-04-24 04:25 | 46.96094 | -122.50090 | 9182 ft | 242 kts | 41° |
| 2026-04-24 04:26 | 46.97266 | -122.48328 | 9019 ft | 241 kts | 41° |
| 2026-04-24 04:26 | 46.98513 | -122.46710 | 8918 ft | 237 kts | 32° |
| 2026-04-24 04:26 | 46.99898 | -122.45416 | 8558 ft | 236 kts | 27° |
| 2026-04-24 04:26 | 47.01322 | -122.44215 | 8239 ft | 234 kts | 27° |
| 2026-04-24 04:27 | 47.02735 | -122.43039 | 7931 ft | 233 kts | 27° |
| 2026-04-24 04:27 | 47.04145 | -122.41861 | 7661 ft | 233 kts | 27° |
| 2026-04-24 04:27 | 47.05546 | -122.40684 | 7368 ft | 232 kts | 27° |
| 2026-04-24 04:27 | 47.06932 | -122.39517 | 7074 ft | 232 kts | 28° |
| 2026-04-24 04:28 | 47.08328 | -122.38338 | 6778 ft | 231 kts | 28° |
| 2026-04-24 04:28 | 47.09721 | -122.37159 | 6468 ft | 231 kts | 28° |
| 2026-04-24 04:28 | 47.11112 | -122.35982 | 6147 ft | 231 kts | 28° |
| 2026-04-24 04:28 | 47.12556 | -122.34985 | 5907 ft | 230 kts | 17° |
| 2026-04-24 04:29 | 47.14104 | -122.34467 | 5526 ft | 226 kts | 9° |
| 2026-04-24 04:29 | 47.15670 | -122.34103 | 4982 ft | 229 kts | 8° |
| 2026-04-24 04:29 | 47.17234 | -122.33766 | 4504 ft | 223 kts | 8° |
| 2026-04-24 04:29 | 47.18687 | -122.33450 | 4255 ft | 198 kts | 8° |
| 2026-04-24 04:30 | 47.19966 | -122.33168 | 4046 ft | 175 kts | 8° |
| 2026-04-24 04:30 | 47.21105 | -122.32914 | 3867 ft | 156 kts | 8° |
| 2026-04-24 04:30 | 47.22127 | -122.32685 | 3635 ft | 142 kts | 9° |
| 2026-04-24 04:30 | 47.23078 | -122.32421 | 3275 ft | 138 kts | 14° |
| 2026-04-24 04:31 | 47.24021 | -122.32157 | 2862 ft | 138 kts | 6° |
| 2026-04-24 04:31 | 47.24982 | -122.32076 | 2499 ft | 139 kts | 3° |
| 2026-04-24 04:31 | 47.25942 | -122.32023 | 2423 ft | 138 kts | 2° |
| 2026-04-24 04:31 | 47.26901 | -122.32014 | 2421 ft | 138 kts | 1° |
| 2026-04-24 04:32 | 47.27857 | -122.32011 | 2426 ft | 137 kts | 2° |
| 2026-04-24 04:32 | 47.28790 | -122.31986 | 2445 ft | 130 kts | 2° |
| 2026-04-24 04:32 | 47.29685 | -122.31952 | 2431 ft | 128 kts | 1° |
| 2026-04-24 04:32 | 47.30564 | -122.31924 | 2431 ft | 128 kts | 1° |
| 2026-04-24 04:33 | 47.31456 | -122.31907 | 2429 ft | 128 kts | 1° |
| 2026-04-24 04:33 | 47.32351 | -122.31898 | 2428 ft | 128 kts | 1° |
| 2026-04-24 04:33 | 47.33244 | -122.31894 | 2428 ft | 128 kts | 1° |
| 2026-04-24 04:33 | 47.34139 | -122.31891 | 2398 ft | 129 kts | 1° |
| 2026-04-24 04:34 | 47.35032 | -122.31885 | 2227 ft | 128 kts | 1° |
| 2026-04-24 04:34 | 47.35922 | -122.31877 | 2052 ft | 128 kts | 1° |
| 2026-04-24 04:34 | 47.36809 | -122.31869 | 1873 ft | 127 kts | 1° |
| 2026-04-24 04:34 | 47.37697 | -122.31861 | 1693 ft | 127 kts | 1° |
| 2026-04-24 04:35 | 47.38581 | -122.31853 | 1512 ft | 127 kts | 1° |
| 2026-04-24 04:35 | 47.39461 | -122.31846 | 1336 ft | 126 kts | 1° |
| 2026-04-24 04:35 | 47.40339 | -122.31838 | 1155 ft | 126 kts | 1° |
| 2026-04-24 04:35 | 47.41217 | -122.31830 | 971 ft | 126 kts | 0° |
| 2026-04-24 04:36 | 47.42094 | -122.31823 | 802 ft | 126 kts | 0° |
| 2026-04-24 04:36 | 47.42968 | -122.31815 | 634 ft | 125 kts | 0° |
| 2026-04-24 04:36 | 47.43793 | -122.31808 | 477 ft | 123 kts | 0° |
| 2026-04-24 04:36 | 47.44648 | -122.31800 | 396 ft | 111 kts | 0° |
| 2026-04-24 04:37 | 47.45238 | -122.31793 | 395 ft | 45 kts | 359° |
| 2026-04-24 04:37 | 47.45317 | -122.31796 | 396 ft | 0 kts | 5° |
| 2026-04-24 04:37 | 47.45327 | -122.31787 | 396 ft | 9 kts | 32° |
| 2026-04-24 04:37 | 47.45393 | -122.31686 | 395 ft | 15 kts | 39° |
| 2026-04-24 04:38 | 47.45474 | -122.31559 | 390 ft | 19 kts | 63° |
| 2026-04-24 04:38 | 47.45506 | -122.31360 | 393 ft | 22 kts | 88° |
| 2026-04-24 04:38 | 47.45504 | -122.31116 | 395 ft | 26 kts | 91° |
| 2026-04-24 04:38 | 47.45550 | -122.30863 | 395 ft | 25 kts | 40° |
| 2026-04-24 04:39 | 47.45560 | -122.30690 | 393 ft | 19 kts | 128° |
| 2026-04-24 04:39 | 47.45433 | -122.30629 | 392 ft | 23 kts | 177° |
| 2026-04-24 04:39 | 47.45078 | -122.30626 | 396 ft | 100 kts | 180° |
| 2026-04-24 04:39 | 47.44041 | -122.30632 | 397 ft | 194 kts | 173° |
| 2026-04-24 04:40 | 47.42524 | -122.30494 | 742 ft | 232 kts | 174° |
| 2026-04-24 04:40 | 47.41256 | -122.30196 | 3069 ft | 144 kts | 168° |
| 2026-04-24 04:40 | 47.40071 | -122.29806 | 3434 ft | 214 kts | 167° |